createdAt,value
2023-10-09T00:02:13.535Z,0.73
2023-10-09T00:04:43.576Z,0.98
2023-10-09T00:07:11.696Z,0.75
2023-10-09T00:09:49.393Z,0.70
2023-10-09T00:12:24.714Z,0.70
2023-10-09T00:15:10.154Z,0.65
2023-10-09T00:17:39.364Z,0.68
2023-10-09T00:20:19.029Z,0.70
2023-10-09T00:22:47.717Z,0.93
2023-10-09T00:25:23.334Z,0.80
2023-10-09T00:27:50.444Z,0.63
2023-10-09T00:30:31.219Z,0.77
2023-10-09T00:33:08.580Z,0.70
2023-10-09T00:35:45.765Z,0.80
2023-10-09T00:38:21.739Z,0.60
2023-10-09T00:40:58.587Z,0.50
2023-10-09T00:43:29.770Z,0.70
2023-10-09T00:46:04.188Z,0.60
2023-10-09T00:48:34.291Z,0.70
2023-10-09T00:51:01.989Z,0.77
2023-10-09T00:53:32.466Z,0.80
2023-10-09T00:56:05.943Z,0.95
2023-10-09T00:58:37.330Z,0.65
2023-10-09T01:01:06.277Z,0.80
2023-10-09T01:03:35.103Z,0.77
2023-10-09T01:06:10.107Z,0.85
2023-10-09T01:08:41.895Z,1.00
2023-10-09T01:11:11.623Z,0.85
2023-10-09T01:13:51.820Z,0.75
2023-10-09T01:16:20.390Z,0.77
2023-10-09T01:18:52.395Z,0.80
2023-10-09T01:21:26.039Z,0.70
2023-10-09T01:24:11.636Z,0.80
2023-10-09T01:26:41.190Z,0.60
2023-10-09T01:29:20.385Z,0.70
2023-10-09T01:31:56.582Z,0.85
2023-10-09T01:34:50.690Z,0.80
2023-10-09T01:37:30.403Z,0.93
2023-10-09T01:40:00.516Z,0.98
2023-10-09T01:42:31.467Z,0.70
2023-10-09T01:45:24.804Z,0.90
2023-10-09T01:47:56.417Z,0.70
2023-10-09T01:50:28.720Z,0.82
2023-10-09T01:52:56.016Z,0.95
2023-10-09T01:55:30.551Z,0.88
2023-10-09T01:58:07.369Z,0.80
2023-10-09T02:00:42.953Z,0.90
2023-10-09T02:03:14.401Z,0.55
2023-10-09T02:05:43.542Z,0.80
2023-10-09T02:08:11.656Z,0.70
2023-10-09T02:10:40.791Z,0.90
2023-10-09T02:13:10.468Z,0.70
2023-10-09T02:15:47.257Z,1.02
2023-10-09T02:18:25.142Z,0.90
2023-10-09T02:21:13.881Z,1.00
2023-10-09T02:23:41.340Z,0.90
2023-10-09T02:26:20.832Z,0.80
2023-10-09T02:29:00.186Z,0.80
2023-10-09T02:31:34.799Z,0.85
2023-10-09T02:34:07.136Z,0.82
2023-10-09T02:36:39.706Z,1.10
2023-10-09T02:39:07.773Z,0.90
2023-10-09T02:41:35.838Z,0.85
2023-10-09T02:44:12.709Z,0.90
2023-10-09T02:46:41.540Z,0.98
2023-10-09T02:49:11.157Z,0.85
2023-10-09T02:51:49.576Z,1.42
2023-10-09T02:54:20.354Z,1.10
2023-10-09T02:57:07.181Z,0.80
2023-10-09T02:59:34.962Z,0.90
2023-10-09T03:02:02.150Z,0.80
2023-10-09T03:04:30.974Z,1.00
2023-10-09T03:07:02.035Z,1.00
2023-10-09T03:09:29.560Z,0.90
2023-10-09T03:12:05.229Z,0.90
2023-10-09T03:14:33.661Z,1.00
2023-10-09T03:17:00.669Z,1.00
2023-10-09T03:19:29.640Z,0.82
2023-10-09T03:21:58.799Z,0.80
2023-10-09T03:24:28.655Z,1.13
2023-10-09T03:26:59.581Z,1.08
2023-10-09T03:29:28.826Z,0.90
2023-10-09T03:31:58.171Z,1.05
2023-10-09T03:34:25.234Z,1.00
2023-10-09T03:37:12.668Z,0.80
2023-10-09T03:39:48.414Z,1.00
2023-10-09T03:42:21.861Z,1.10
2023-10-09T03:44:55.498Z,1.00
2023-10-09T03:47:23.885Z,1.00
2023-10-09T03:49:55.616Z,1.10
2023-10-09T03:52:27.454Z,0.88
2023-10-09T03:54:56.049Z,1.00
2023-10-09T03:57:24.746Z,1.00
2023-10-09T03:59:53.236Z,1.15
2023-10-09T04:02:23.575Z,1.00
2023-10-09T04:04:53.264Z,0.95
2023-10-09T04:07:20.597Z,0.93
2023-10-09T04:09:52.412Z,0.80
2023-10-09T04:12:23.071Z,0.70
2023-10-09T04:14:50.211Z,1.33
2023-10-09T04:17:23.109Z,1.00
2023-10-09T04:20:10.832Z,0.90
2023-10-09T04:23:02.634Z,1.10
2023-10-09T04:25:43.397Z,0.80
2023-10-09T04:28:20.306Z,0.98
2023-10-09T04:30:48.725Z,1.10
2023-10-09T04:33:42.526Z,2.10
2023-10-09T04:36:33.518Z,0.80
2023-10-09T04:39:03.178Z,1.10
2023-10-09T04:41:34.853Z,1.30
2023-10-09T04:44:20.755Z,1.08
2023-10-09T04:47:11.256Z,0.80
2023-10-09T04:52:26.451Z,0.80
2023-10-09T04:55:09.049Z,1.15
2023-10-09T04:57:46.716Z,1.15
2023-10-09T05:00:28.905Z,1.10
2023-10-09T05:03:00.292Z,0.90
2023-10-09T05:05:49.430Z,1.00
2023-10-09T05:08:29.880Z,1.10
2023-10-09T05:10:59.358Z,1.13
2023-10-09T05:13:42.292Z,1.20
2023-10-09T05:16:20.069Z,1.00
2023-10-09T05:18:57.979Z,0.70
2023-10-09T05:21:33.192Z,0.90
2023-10-09T05:24:15.437Z,1.20
2023-10-09T05:26:52.443Z,0.93
2023-10-09T05:29:29.792Z,0.82
2023-10-09T05:31:56.995Z,0.90
2023-10-09T05:34:59.885Z,1.55
2023-10-09T05:37:35.056Z,0.98
2023-10-09T05:40:17.414Z,1.00
2023-10-09T05:42:59.287Z,0.98
2023-10-09T05:45:46.856Z,0.80
2023-10-09T05:48:14.152Z,0.80
2023-10-09T05:50:56.456Z,0.80
2023-10-09T05:53:42.109Z,0.90
2023-10-09T05:56:27.598Z,1.02
2023-10-09T05:59:13.727Z,1.00
2023-10-09T06:01:59.403Z,1.00
2023-10-09T06:04:46.791Z,0.93
2023-10-09T06:07:14.773Z,1.00
2023-10-09T06:09:51.718Z,0.75
2023-10-09T06:12:54.001Z,0.82
2023-10-09T06:15:34.467Z,0.82
2023-10-09T06:18:21.671Z,0.70
2023-10-09T06:21:07.979Z,0.90
2023-10-09T06:23:58.049Z,0.75
2023-10-09T06:26:25.569Z,0.80
2023-10-09T06:29:13.376Z,0.70
2023-10-09T06:31:59.195Z,0.60
2023-10-09T06:34:37.065Z,0.85
2023-10-09T06:37:27.212Z,0.77
2023-10-09T06:39:58.125Z,0.85
2023-10-09T06:42:41.062Z,1.00
2023-10-09T06:45:16.364Z,0.75
2023-10-09T06:47:57.656Z,0.98
2023-10-09T06:50:48.313Z,0.90
2023-10-09T06:53:16.455Z,0.88
2023-10-09T06:55:50.606Z,0.80
2023-10-09T06:58:24.109Z,0.70
2023-10-09T07:01:01.061Z,0.80
2023-10-09T07:03:37.880Z,0.60
2023-10-09T07:06:25.828Z,0.70
2023-10-09T07:09:06.630Z,0.77
2023-10-09T07:11:40.973Z,0.90
2023-10-09T07:14:31.342Z,0.60
2023-10-09T07:17:17.472Z,1.05
2023-10-09T07:19:48.534Z,0.90
2023-10-09T07:22:22.263Z,1.10
2023-10-09T07:25:13.152Z,0.70
2023-10-09T07:28:01.377Z,0.98
2023-10-09T07:30:31.222Z,0.73
2023-10-09T07:33:12.182Z,1.20
2023-10-09T07:35:44.805Z,0.90
2023-10-09T07:38:21.828Z,0.90
2023-10-09T07:41:08.510Z,0.70
2023-10-09T07:43:40.782Z,0.85
2023-10-09T07:46:27.591Z,0.77
2023-10-09T07:48:59.147Z,0.70
2023-10-09T07:51:32.317Z,0.80
2023-10-09T07:54:10.115Z,0.90
2023-10-09T07:57:01.667Z,0.68
2023-10-09T07:59:32.598Z,0.88
2023-10-09T08:02:06.501Z,0.70
2023-10-09T08:04:39.900Z,0.70
2023-10-09T08:08:02.065Z,1.00
2023-10-09T08:10:22.556Z,0.60
2023-10-09T08:12:52.156Z,1.02
2023-10-09T08:15:20.114Z,0.80
2023-10-09T08:18:16.741Z,0.90
2023-10-09T08:21:12.591Z,0.65
2023-10-09T08:23:51.660Z,0.80
2023-10-09T08:26:34.191Z,0.90
2023-10-09T08:29:27.165Z,0.85
2023-10-09T08:31:58.427Z,0.90
2023-10-09T08:36:56.378Z,0.80
2023-10-09T08:39:26.865Z,0.90
2023-10-09T08:41:56.017Z,0.90
2023-10-09T08:44:26.285Z,0.90
2023-10-09T08:46:55.722Z,1.15
2023-10-09T08:49:25.392Z,1.08
2023-10-09T08:51:53.939Z,0.90
2023-10-09T08:54:21.149Z,1.17
2023-10-09T08:56:51.824Z,0.77
2023-10-09T08:59:20.817Z,0.60
2023-10-09T09:01:53.286Z,0.95
2023-10-09T09:04:41.432Z,0.77
2023-10-09T09:07:40.490Z,0.90
2023-10-09T09:10:22.705Z,0.77
2023-10-09T09:12:54.744Z,0.73
2023-10-09T09:15:22.883Z,0.80
2023-10-09T09:17:50.882Z,2.13
2023-10-09T09:20:35.865Z,0.85
2023-10-09T09:23:06.101Z,0.80
2023-10-09T09:25:49.351Z,1.30
2023-10-09T09:28:23.197Z,0.80
2023-10-09T09:30:53.190Z,0.80
2023-10-09T09:33:41.923Z,0.90
2023-10-09T09:36:08.986Z,0.75
2023-10-09T09:38:49.426Z,0.80
2023-10-09T09:41:27.620Z,0.77
2023-10-09T09:44:01.907Z,0.70
2023-10-09T09:46:37.360Z,0.70
2023-10-09T09:49:20.716Z,1.15
2023-10-09T09:51:48.354Z,0.77
2023-10-09T09:54:19.577Z,0.80
2023-10-09T09:56:53.609Z,0.55
2023-10-09T09:59:28.663Z,0.75
2023-10-09T10:02:08.371Z,0.70
2023-10-09T10:04:40.352Z,1.15
2023-10-09T10:07:12.798Z,1.10
2023-10-09T10:09:46.335Z,0.85
2023-10-09T10:12:15.563Z,0.90
2023-10-09T10:15:06.962Z,0.90
2023-10-09T10:18:02.488Z,0.90
2023-10-09T10:20:32.635Z,0.75
2023-10-09T10:23:27.061Z,0.90
2023-10-09T10:26:02.025Z,1.35
2023-10-09T10:28:47.038Z,1.63
2023-10-09T10:31:15.258Z,1.42
2023-10-09T10:33:57.645Z,1.10
2023-10-09T10:36:26.405Z,1.00
2023-10-09T10:39:23.140Z,1.30
2023-10-09T10:42:00.332Z,1.02
2023-10-09T10:44:43.764Z,1.17
2023-10-09T10:47:26.505Z,1.00
2023-10-09T10:50:00.588Z,1.13
2023-10-09T10:52:43.794Z,1.30
2023-10-09T10:55:19.454Z,1.05
2023-10-09T10:58:02.463Z,6.03
2023-10-09T11:00:49.072Z,1.00
2023-10-09T11:03:37.163Z,1.05
2023-10-09T11:06:16.866Z,1.00
2023-10-09T11:08:56.355Z,0.88
2023-10-09T11:11:24.492Z,1.23
2023-10-09T11:13:59.111Z,0.90
2023-10-09T11:16:45.723Z,1.10
2023-10-09T11:19:29.152Z,1.02
2023-10-09T11:22:15.450Z,1.00
2023-10-09T11:24:44.763Z,1.42
2023-10-09T11:27:20.172Z,1.20
2023-10-09T11:29:50.561Z,3.33
2023-10-09T11:32:25.608Z,2.15
2023-10-09T11:35:11.083Z,1.35
2023-10-09T11:37:44.091Z,1.00
2023-10-09T11:41:06.147Z,1.10
2023-10-09T11:43:53.699Z,1.20
2023-10-09T11:46:52.997Z,0.90
2023-10-09T11:49:23.139Z,1.20
2023-10-09T11:52:08.889Z,1.00
2023-10-09T11:54:36.850Z,1.27
2023-10-09T11:57:04.804Z,1.00
2023-10-09T11:59:39.387Z,1.20
2023-10-09T12:02:18.316Z,1.25
2023-10-09T12:04:47.185Z,1.17
2023-10-09T12:07:14.406Z,1.13
2023-10-09T12:09:41.877Z,1.15
2023-10-09T12:12:12.535Z,1.30
2023-10-09T12:14:41.050Z,1.48
2023-10-09T12:17:09.486Z,1.05
2023-10-09T12:19:40.412Z,1.10
2023-10-09T12:22:12.053Z,1.30
2023-10-09T12:24:39.446Z,1.55
2023-10-09T12:27:12.427Z,1.20
2023-10-09T12:29:46.599Z,1.30
2023-10-09T12:32:15.227Z,1.40
2023-10-09T12:34:43.808Z,1.33
2023-10-09T12:37:10.901Z,1.40
2023-10-09T12:39:41.667Z,1.20
2023-10-09T12:42:10.098Z,1.23
2023-10-09T12:44:40.367Z,1.35
2023-10-09T12:47:08.774Z,1.38
2023-10-09T12:49:35.787Z,1.10
2023-10-09T12:52:02.881Z,0.90
2023-10-09T12:54:30.122Z,1.08
2023-10-09T12:56:59.317Z,1.48
2023-10-09T12:59:26.725Z,0.93
2023-10-09T13:01:54.269Z,1.10
2023-10-09T13:04:23.631Z,1.15
2023-10-09T13:06:55.049Z,1.30
2023-10-09T13:09:26.369Z,1.20
2023-10-09T13:14:23.241Z,1.45
2023-10-09T13:16:54.295Z,1.00
2023-10-09T13:21:53.238Z,1.00
2023-10-09T13:24:25.751Z,1.27
2023-10-09T13:26:54.545Z,1.33
2023-10-09T13:29:24.021Z,1.40
2023-10-09T13:31:54.168Z,1.25
2023-10-09T13:34:21.377Z,1.05
2023-10-09T13:36:54.593Z,1.20
2023-10-09T13:39:28.186Z,1.50
2023-10-09T13:42:00.861Z,1.20
2023-10-09T13:44:33.329Z,1.00
2023-10-09T13:47:02.967Z,1.10
2023-10-09T13:49:33.351Z,0.90
2023-10-09T13:52:05.107Z,1.30
2023-10-09T13:57:07.538Z,1.02
2023-10-09T13:59:43.770Z,1.20
2023-10-09T14:02:18.296Z,1.13
2023-10-09T14:04:49.574Z,1.17
2023-10-09T14:07:18.634Z,0.98
2023-10-09T14:09:56.572Z,1.35
2023-10-09T14:12:26.381Z,1.27
2023-10-09T14:14:55.475Z,1.27
2023-10-09T14:17:29.628Z,1.05
2023-10-09T14:20:17.792Z,2.03
2023-10-09T14:22:46.752Z,1.02
2023-10-09T14:25:16.898Z,1.15
2023-10-09T14:27:44.083Z,1.05
2023-10-09T14:30:24.027Z,1.40
2023-10-09T14:32:57.353Z,1.33
2023-10-09T14:35:27.929Z,1.05
2023-10-09T14:37:55.295Z,1.05
2023-10-09T14:40:31.141Z,0.98
2023-10-09T14:42:59.307Z,2.28
2023-10-09T14:45:27.270Z,3.20
2023-10-09T14:47:55.466Z,2.50
2023-10-09T14:50:23.866Z,1.67
2023-10-09T14:52:54.156Z,1.30
2023-10-09T14:55:30.664Z,1.10
2023-10-09T14:58:00.527Z,1.20
2023-10-09T15:00:27.967Z,1.20
2023-10-09T15:02:55.055Z,1.38
2023-10-09T15:05:24.447Z,1.13
2023-10-09T15:07:54.053Z,1.38
2023-10-09T15:10:21.582Z,1.20
2023-10-09T15:12:51.151Z,1.42
2023-10-09T15:15:19.569Z,1.40
2023-10-09T15:17:49.541Z,1.40
2023-10-09T15:20:18.317Z,2.00
2023-10-09T15:22:46.371Z,1.40
2023-10-09T15:25:18.899Z,1.50
2023-10-09T15:27:46.089Z,1.30
2023-10-09T15:30:18.233Z,1.75
2023-10-09T15:32:45.757Z,1.98
2023-10-09T15:35:14.697Z,1.83
2023-10-09T15:37:44.007Z,1.98
2023-10-09T15:40:20.090Z,2.00
2023-10-09T15:42:51.596Z,3.20
2023-10-09T15:47:52.852Z,3.05
2023-10-09T15:50:24.165Z,2.95
2023-10-09T15:52:55.476Z,4.28
2023-10-09T15:57:55.952Z,2.63
2023-10-09T16:00:29.391Z,2.88
2023-10-09T16:02:56.650Z,2.45
2023-10-09T16:05:27.212Z,1.90
2023-10-09T16:07:56.111Z,2.60
2023-10-09T16:10:24.276Z,2.20
2023-10-09T16:12:54.131Z,1.67
2023-10-09T16:15:21.968Z,2.72
2023-10-09T16:17:50.477Z,1.63
2023-10-09T16:20:23.014Z,1.70
2023-10-09T16:22:51.011Z,2.00
2023-10-09T16:25:21.997Z,3.78
2023-10-09T16:27:49.353Z,4.63
2023-10-09T16:30:21.548Z,4.28
2023-10-09T16:32:49.375Z,3.75
2023-10-09T16:35:17.744Z,3.13
2023-10-09T16:37:44.745Z,4.32
2023-10-09T16:40:15.270Z,5.78
2023-10-09T16:42:43.710Z,6.50
2023-10-09T16:45:17.271Z,5.10
2023-10-09T16:47:48.564Z,4.78
2023-10-09T16:50:19.489Z,9.70
2023-10-09T16:52:46.880Z,11.77
2023-10-09T16:55:14.144Z,10.45
2023-10-09T16:57:42.581Z,8.48
2023-10-09T17:00:14.126Z,8.32
2023-10-09T17:02:42.144Z,4.93
2023-10-09T17:05:22.515Z,4.03
2023-10-09T17:07:50.348Z,6.90
2023-10-09T17:10:18.442Z,11.32
2023-10-09T17:12:47.977Z,8.07
2023-10-09T17:15:18.151Z,7.43
2023-10-09T17:17:51.999Z,5.85
2023-10-09T17:20:19.921Z,5.28
2023-10-09T17:22:47.660Z,4.63
2023-10-09T17:25:17.990Z,5.00
2023-10-09T17:27:45.397Z,5.47
2023-10-09T17:30:16.920Z,5.50
2023-10-09T17:35:15.322Z,6.55
2023-10-09T17:37:42.812Z,6.35
2023-10-09T17:40:10.241Z,6.05
2023-10-09T17:42:37.419Z,6.60
2023-10-09T17:45:07.791Z,6.70
2023-10-09T17:47:38.184Z,6.32
2023-10-09T17:50:12.321Z,4.50
2023-10-09T17:52:40.048Z,4.03
2023-10-09T17:55:07.781Z,4.43
2023-10-09T17:57:35.558Z,4.55
2023-10-09T18:00:04.982Z,5.55
2023-10-09T18:02:33.035Z,6.10
2023-10-09T18:05:00.029Z,6.20
2023-10-09T18:07:28.083Z,7.82
2023-10-09T18:09:55.251Z,7.68
2023-10-09T18:12:23.306Z,6.50
2023-10-09T18:14:56.252Z,5.85
2023-10-09T18:17:24.670Z,3.63
2023-10-09T18:19:52.892Z,3.13
2023-10-09T18:22:20.676Z,2.92
2023-10-09T18:24:47.743Z,3.17
2023-10-09T18:27:15.570Z,2.65
2023-10-09T18:29:43.422Z,2.60
2023-10-09T18:32:10.469Z,3.00
2023-10-09T18:34:39.532Z,2.58
2023-10-09T18:37:08.320Z,2.38
2023-10-09T18:39:40.227Z,2.88
2023-10-09T18:42:10.310Z,2.20
2023-10-09T18:44:45.224Z,2.45
2023-10-09T18:47:20.455Z,3.13
2023-10-09T18:49:51.614Z,3.22
2023-10-09T18:52:19.179Z,3.00
2023-10-09T18:54:46.836Z,3.22
2023-10-09T18:57:14.079Z,3.35
2023-10-09T18:59:44.102Z,3.63
2023-10-09T19:02:12.936Z,2.83
2023-10-09T19:04:40.264Z,3.50
2023-10-09T19:07:07.337Z,2.85
2023-10-09T19:09:34.851Z,3.40
2023-10-09T19:12:02.838Z,3.13
2023-10-09T19:14:32.780Z,2.90
2023-10-09T19:17:01.410Z,3.13
2023-10-09T19:19:28.734Z,3.28
2023-10-09T19:21:55.683Z,2.85
2023-10-09T19:24:22.985Z,2.92
2023-10-09T19:26:49.942Z,3.08
2023-10-09T19:29:17.118Z,3.10
2023-10-09T19:31:44.452Z,3.40
2023-10-09T19:34:14.762Z,3.38
2023-10-09T19:36:48.179Z,3.10
2023-10-09T19:39:19.104Z,2.60
2023-10-09T19:41:46.792Z,3.10
2023-10-09T19:44:13.744Z,2.42
2023-10-09T19:46:41.080Z,3.17
2023-10-09T19:49:08.126Z,2.90
2023-10-09T19:51:35.233Z,3.53
2023-10-09T19:54:02.210Z,2.90
2023-10-09T19:56:29.349Z,2.95
2023-10-09T19:58:58.895Z,3.42
2023-10-09T20:01:27.362Z,2.72
2023-10-09T20:03:54.672Z,3.20
2023-10-09T20:06:21.994Z,3.90
2023-10-09T20:08:49.200Z,3.55
2023-10-09T20:11:16.313Z,2.83
2023-10-09T20:13:44.643Z,3.08
2023-10-09T20:16:12.560Z,3.05
2023-10-09T20:18:44.414Z,4.20
2023-10-09T20:21:13.027Z,3.60
2023-10-09T20:23:41.255Z,2.85
2023-10-09T20:26:08.550Z,4.53
2023-10-09T20:28:38.524Z,3.60
2023-10-09T20:31:05.476Z,3.50
2023-10-09T20:33:37.088Z,3.22
2023-10-09T20:36:13.462Z,3.95
2023-10-09T20:38:40.713Z,3.88
2023-10-09T20:41:11.248Z,4.50
2023-10-09T20:43:42.365Z,3.70
2023-10-09T20:46:13.579Z,3.65
2023-10-09T20:51:19.273Z,3.60
2023-10-09T20:53:46.801Z,3.63
2023-10-09T20:56:13.931Z,3.45
2023-10-09T20:58:42.991Z,2.25
2023-10-09T21:01:17.862Z,2.65
2023-10-09T21:03:53.268Z,2.38
2023-10-09T21:06:22.481Z,1.77
2023-10-09T21:08:50.806Z,2.50
2023-10-09T21:11:18.336Z,2.15
2023-10-09T21:13:48.817Z,1.95
2023-10-09T21:16:17.443Z,1.70
2023-10-09T21:18:46.760Z,1.40
2023-10-09T21:21:15.840Z,1.35
2023-10-09T21:23:44.300Z,1.20
2023-10-09T21:26:22.771Z,1.73
2023-10-09T21:28:51.287Z,2.10
2023-10-09T21:31:20.524Z,1.20
2023-10-09T21:33:50.574Z,1.50
2023-10-09T21:36:18.671Z,1.50
2023-10-09T21:38:45.812Z,1.83
2023-10-09T21:41:14.570Z,1.73
2023-10-09T21:43:41.662Z,1.30
2023-10-09T21:46:09.388Z,1.60
2023-10-09T21:48:39.013Z,1.60
2023-10-09T21:51:09.541Z,1.73
2023-10-09T21:53:37.130Z,1.60
2023-10-09T21:56:08.989Z,1.52
2023-10-09T21:58:36.378Z,1.98
2023-10-09T22:01:04.772Z,2.88
2023-10-09T22:03:32.448Z,2.20
2023-10-09T22:06:00.292Z,3.05
2023-10-09T22:08:27.454Z,3.42
2023-10-09T22:10:55.080Z,3.00
2023-10-09T22:13:23.351Z,3.60
2023-10-09T22:15:50.680Z,2.67
2023-10-09T22:18:26.981Z,3.95
2023-10-09T22:21:06.619Z,3.35
2023-10-09T22:23:34.326Z,2.88
2023-10-09T22:26:02.130Z,3.72
2023-10-09T22:28:30.743Z,3.30
2023-10-09T22:31:04.629Z,3.38
2023-10-09T22:33:50.362Z,3.70
2023-10-09T22:36:34.415Z,3.45
2023-10-09T22:39:21.710Z,3.35
2023-10-09T22:41:55.858Z,3.03
2023-10-09T22:44:25.634Z,3.17
2023-10-09T22:46:53.404Z,3.70
2023-10-09T22:49:20.587Z,3.33
2023-10-09T22:51:53.239Z,3.17
2023-10-09T22:54:35.994Z,3.03
2023-10-09T22:57:04.596Z,3.00
2023-10-09T22:59:33.276Z,2.78
2023-10-09T23:02:00.931Z,2.42
2023-10-09T23:04:40.243Z,2.40
2023-10-09T23:07:17.286Z,2.67
2023-10-09T23:09:55.843Z,3.70
2023-10-09T23:12:27.010Z,3.70
2023-10-09T23:14:56.554Z,4.22
2023-10-09T23:17:44.267Z,4.30
2023-10-09T23:20:19.280Z,3.88
2023-10-09T23:22:49.545Z,3.65
2023-10-09T23:25:28.998Z,4.18
2023-10-09T23:28:15.301Z,3.30
2023-10-09T23:30:45.864Z,3.20
2023-10-09T23:33:22.161Z,3.80
2023-10-09T23:35:56.390Z,3.90
2023-10-09T23:38:32.934Z,4.35
2023-10-09T23:41:13.389Z,3.95
2023-10-09T23:43:47.685Z,3.97
2023-10-09T23:46:18.955Z,4.00
2023-10-09T23:51:20.253Z,3.25
2023-10-09T23:53:53.515Z,3.97
2023-10-09T23:56:39.706Z,3.88
2023-10-09T23:59:13.033Z,3.63
